This is the latest recevied weather packets stored in our database for station/object KG7KID-5. If no packets are shown the sender has not sent any weather packets the latest 10 day(s).
| Time | Temp. | Humidity | Pressure | Rain* | Wind** | Luminosity | Snow |
|---|---|---|---|---|---|---|---|
| 1778162704 | 15° C | 38% | 933.8 hPa | 0 mm | - | - | - |
| 1778162341 | 14.44° C | 38% | 933.8 hPa | 0 mm | - | - | - |
| 1778161742 | 12.78° C | 40% | 933.8 hPa | 0 mm | - | - | - |
| 1778141865 | 13.89° C | 39% | 932.8 hPa | 0 mm | - | - | - |
| 1778141831 | 13.89° C | 39% | 932.8 hPa | 0 mm | - | - | - |
| 1778139680 | 13.89° C | 37% | 932.7 hPa | 0 mm | - | - | - |
| 1778137074 | 15.56° C | 33% | 932.5 hPa | 0 mm | - | - | - |
| 1778137022 | 15.56° C | 33% | 932.5 hPa | 0 mm | - | - | - |
| 1778136123 | 17.22° C | 32% | 932.3 hPa | 0 mm | - | - | - |
| 1778134083 | 18.33° C | 29% | 931.8 hPa | 0 mm | - | - | - |
| 1778131083 | 20° C | 27% | 931.2 hPa | 0 mm | - | - | - |
| 1778126284 | 20.56° C | 26% | 929.9 hPa | 0 mm | - | - | - |
| 1778124783 | 21.11° C | 25% | 929.3 hPa | 0 mm | - | - | - |
| 1778122384 | 22.78° C | 23% | 928.5 hPa | 0 mm | - | - | - |
| 1778119083 | 23.89° C | 22% | 927.5 hPa | 0 mm | - | - | - |
| 1778117683 | 24.44° C | 20% | 927.4 hPa | 0 mm | - | - | - |
| 1778115476 | 25° C | 19% | 927.3 hPa | 0 mm | - | - | - |
| 1778114276 | 26.11° C | 18% | 927.2 hPa | 0 mm | - | - | - |
| 1778113955 | 25.56° C | 18% | 927 hPa | 0 mm | - | - | - |
| 1778113676 | 25.56° C | 18% | 927 hPa | 0 mm | - | - | - |
| 1778111877 | 26.67° C | 17% | 926.9 hPa | 0 mm | - | - | - |
| 1778110976 | 26.67° C | 17% | 926.8 hPa | 0 mm | - | - | - |
| 1778110676 | 26.67° C | 17% | 926.8 hPa | 0 mm | - | - | - |
| 1778110377 | 26.67° C | 17% | 926.9 hPa | 0 mm | - | - | - |
| 1778110076 | 26.11° C | 17% | 926.9 hPa | 0 mm | - | - | - |
* Rain latest hour (hover to see other rain measurements)
** Current wind speed in m/s (hover to see current wind gust speed)